createdAt,value
2019-05-14T00:00:11.572Z,77.40
2019-05-14T00:01:11.991Z,77.61
2019-05-14T00:02:12.228Z,76.68
2019-05-14T00:03:11.538Z,77.61
2019-05-14T00:04:11.709Z,77.64
2019-05-14T00:05:12.158Z,78.37
2019-05-14T00:06:11.655Z,78.72
2019-05-14T00:07:11.747Z,78.61
2019-05-14T00:08:11.546Z,80.11
2019-05-14T00:09:12.131Z,80.42
2019-05-14T00:10:11.861Z,80.42
2019-05-14T00:11:13.015Z,80.94
2019-05-14T00:12:11.623Z,82.01
2019-05-14T00:13:12.052Z,82.64
2019-05-14T00:14:11.779Z,83.09
2019-05-14T00:15:11.402Z,83.09
2019-05-14T00:16:11.910Z,82.99
2019-05-14T00:17:11.556Z,83.20
2019-05-14T00:18:11.815Z,84.34
2019-05-14T00:19:11.383Z,84.23
2019-05-14T00:20:13.348Z,83.92
2019-05-14T00:21:12.160Z,83.61
2019-05-14T00:22:11.755Z,84.75
2019-05-14T00:23:11.824Z,84.55
2019-05-14T00:24:11.532Z,84.44
2019-05-14T00:25:11.797Z,83.30
2019-05-14T00:26:12.146Z,83.51
2019-05-14T00:27:11.665Z,83.37
2019-05-14T00:28:11.790Z,83.26
2019-05-14T00:29:11.536Z,83.26
2019-05-14T00:30:11.568Z,83.47
2019-05-14T00:31:12.131Z,82.89
2019-05-14T00:32:11.504Z,83.30
2019-05-14T00:33:11.610Z,83.26
2019-05-14T00:34:11.342Z,83.09
2019-05-14T00:35:11.295Z,83.40
2019-05-14T00:36:11.355Z,83.26
2019-05-14T00:37:11.674Z,83.26
2019-05-14T00:38:11.912Z,83.72
2019-05-14T00:39:11.419Z,84.23
2019-05-14T00:40:11.794Z,84.90
2019-05-14T00:41:11.221Z,84.69
2019-05-14T00:42:12.584Z,84.96
2019-05-14T00:43:11.459Z,84.61
2019-05-14T00:44:13.349Z,83.37
2019-05-14T00:45:11.543Z,83.58
2019-05-14T00:46:11.861Z,83.01
2019-05-14T00:47:11.313Z,82.50
2019-05-14T00:48:12.941Z,82.50
2019-05-14T00:49:11.894Z,82.77
2019-05-14T00:50:11.397Z,81.63
2019-05-14T00:51:11.145Z,80.90
2019-05-14T00:52:11.679Z,80.49
2019-05-14T00:53:11.792Z,80.80
2019-05-14T00:54:11.294Z,80.35
2019-05-14T00:55:11.770Z,80.14
2019-05-14T00:56:11.149Z,80.24
2019-05-14T00:57:11.953Z,79.38
2019-05-14T00:58:11.305Z,79.30
2019-05-14T00:59:11.448Z,78.75
2019-05-14T01:00:11.638Z,78.23
2019-05-14T01:01:11.820Z,78.41
2019-05-14T01:02:11.588Z,77.78
2019-05-14T01:03:11.143Z,78.34
2019-05-14T01:04:11.761Z,78.55
2019-05-14T01:05:12.360Z,78.09
2019-05-14T01:06:11.377Z,78.61
2019-05-14T01:07:11.868Z,78.20
2019-05-14T01:08:11.991Z,78.16
2019-05-14T01:09:11.451Z,77.64
2019-05-14T01:10:11.630Z,77.64
2019-05-14T01:11:11.863Z,77.85
2019-05-14T01:12:12.156Z,77.64
2019-05-14T01:13:11.209Z,77.75
2019-05-14T01:14:12.256Z,77.64
2019-05-14T01:15:14.078Z,77.95
2019-05-14T01:16:12.035Z,78.06
2019-05-14T01:17:11.316Z,78.27
2019-05-14T01:18:11.363Z,77.95
2019-05-14T01:19:12.397Z,77.58
2019-05-14T01:20:12.438Z,77.64
2019-05-14T01:21:11.669Z,77.95
2019-05-14T01:22:12.467Z,78.51
2019-05-14T01:23:11.528Z,79.41
2019-05-14T01:24:12.607Z,78.61
2019-05-14T01:25:12.003Z,78.72
2019-05-14T01:26:11.541Z,78.61
2019-05-14T01:27:12.485Z,79.55
2019-05-14T01:28:11.326Z,79.13
2019-05-14T01:29:11.929Z,79.13
2019-05-14T01:30:12.515Z,79.44
2019-05-14T01:31:11.341Z,79.51
2019-05-14T01:32:11.657Z,79.75
2019-05-14T01:33:11.890Z,79.13
2019-05-14T01:34:11.165Z,79.75
2019-05-14T01:35:12.109Z,79.75
2019-05-14T01:36:12.319Z,80.16
2019-05-14T01:37:11.730Z,80.58
2019-05-14T01:38:11.464Z,80.62
2019-05-14T01:39:12.141Z,80.41
2019-05-14T01:40:11.395Z,81.24
2019-05-14T01:41:11.830Z,81.24
2019-05-14T01:42:12.441Z,81.70
2019-05-14T01:43:11.528Z,81.18
2019-05-14T01:44:11.958Z,81.49
2019-05-14T01:45:21.895Z,81.70
2019-05-14T01:46:12.128Z,81.90
2019-05-14T01:47:12.442Z,82.73
2019-05-14T01:48:11.679Z,82.15
2019-05-14T01:49:12.051Z,82.87
2019-05-14T01:50:11.339Z,82.67
2019-05-14T01:51:11.930Z,83.29
2019-05-14T01:52:11.225Z,82.87
2019-05-14T01:53:11.519Z,82.63
2019-05-14T01:54:11.957Z,82.98
2019-05-14T01:55:11.416Z,82.25
2019-05-14T01:56:11.958Z,82.35
2019-05-14T01:57:11.482Z,83.60
2019-05-14T01:58:11.522Z,83.81
2019-05-14T01:59:12.078Z,83.43
2019-05-14T02:00:11.450Z,84.20
2019-05-14T02:01:12.038Z,84.89
2019-05-14T02:02:11.546Z,84.30
2019-05-14T02:03:12.155Z,85.75
2019-05-14T02:04:11.627Z,86.07
2019-05-14T02:05:12.248Z,86.38
2019-05-14T02:06:11.866Z,85.65
2019-05-14T02:07:11.538Z,85.86
2019-05-14T02:08:12.129Z,86.38
2019-05-14T02:09:11.118Z,85.75
2019-05-14T02:10:11.631Z,86.59
2019-05-14T02:11:12.078Z,86.80
2019-05-14T02:12:11.656Z,87.04
2019-05-14T02:13:12.094Z,86.90
2019-05-14T02:14:11.675Z,85.75
2019-05-14T02:15:12.019Z,86.38
2019-05-14T02:16:12.939Z,86.07
2019-05-14T02:17:12.184Z,85.55
2019-05-14T02:18:11.127Z,85.34
2019-05-14T02:19:11.523Z,85.24
2019-05-14T02:20:12.334Z,85.65
2019-05-14T02:21:11.828Z,86.17
2019-05-14T02:22:11.265Z,86.11
2019-05-14T02:23:11.855Z,85.59
2019-05-14T02:24:11.334Z,86.94
2019-05-14T02:25:11.661Z,86.52
2019-05-14T02:26:11.414Z,87.15
2019-05-14T02:27:12.090Z,86.49
2019-05-14T02:28:11.546Z,85.75
2019-05-14T02:29:12.299Z,85.96
2019-05-14T02:30:09.872Z,85.75
2019-05-14T02:31:09.872Z,85.24
2019-05-14T02:32:10.702Z,84.99
2019-05-14T02:33:09.841Z,84.58
2019-05-14T02:34:10.328Z,84.37
2019-05-14T02:35:10.295Z,84.78
2019-05-14T02:36:10.542Z,84.37
2019-05-14T02:37:09.808Z,84.72
2019-05-14T02:38:10.414Z,84.68
2019-05-14T02:39:10.407Z,85.03
2019-05-14T02:40:10.075Z,84.89
2019-05-14T02:41:10.126Z,85.03
2019-05-14T02:42:09.957Z,85.86
2019-05-14T02:43:09.826Z,85.51
2019-05-14T02:44:10.149Z,85.13
2019-05-14T02:45:09.710Z,85.03
2019-05-14T02:46:13.048Z,85.17
2019-05-14T02:47:10.691Z,85.90
2019-05-14T02:48:09.694Z,86.32
2019-05-14T02:49:10.625Z,86.32
2019-05-14T02:50:10.261Z,86.63
2019-05-14T02:51:10.471Z,87.29
2019-05-14T02:52:10.369Z,87.08
2019-05-14T02:53:10.435Z,87.29
2019-05-14T02:54:10.171Z,88.02
2019-05-14T02:55:09.737Z,88.40
2019-05-14T02:56:10.546Z,88.81
2019-05-14T02:57:10.662Z,88.09
2019-05-14T02:58:10.136Z,87.25
2019-05-14T02:59:09.956Z,87.08
2019-05-14T03:00:10.422Z,88.43
2019-05-14T03:01:09.695Z,88.06
2019-05-14T03:02:10.379Z,88.58
2019-05-14T03:03:09.964Z,88.27
2019-05-14T03:04:09.481Z,88.37
2019-05-14T03:05:09.934Z,88.83
2019-05-14T03:06:09.687Z,90.29
2019-05-14T03:07:10.826Z,90.50
2019-05-14T03:08:09.501Z,90.60
2019-05-14T03:09:09.925Z,90.29
2019-05-14T03:10:10.219Z,90.60
2019-05-14T03:11:09.666Z,90.45
2019-05-14T03:12:10.205Z,90.45
2019-05-14T03:13:09.681Z,90.45
2019-05-14T03:14:09.434Z,90.04
2019-05-14T03:15:09.843Z,89.73
2019-05-14T03:16:22.215Z,89.06
2019-05-14T03:17:10.942Z,88.64
2019-05-14T03:18:09.473Z,88.54
2019-05-14T03:19:09.911Z,88.33
2019-05-14T03:20:09.494Z,87.92
2019-05-14T03:21:09.522Z,86.77
2019-05-14T03:22:10.276Z,88.19
2019-05-14T03:23:15.626Z,87.88
2019-05-14T03:24:10.261Z,87.77
2019-05-14T03:25:10.136Z,87.98
2019-05-14T03:26:09.722Z,88.02
2019-05-14T03:27:09.925Z,88.23
2019-05-14T03:28:09.478Z,87.92
2019-05-14T03:29:10.113Z,87.81
2019-05-14T03:30:12.776Z,87.29
2019-05-14T03:31:12.710Z,88.23
2019-05-14T03:32:12.800Z,88.33
2019-05-14T03:33:13.262Z,88.43
2019-05-14T03:34:13.611Z,88.89
2019-05-14T03:35:13.606Z,88.33
2019-05-14T03:36:17.344Z,88.43
2019-05-14T03:37:12.733Z,88.23
2019-05-14T03:38:09.528Z,87.66
2019-05-14T03:39:10.500Z,88.09
2019-05-14T03:40:09.511Z,87.88
2019-05-14T03:41:10.699Z,88.19
2019-05-14T03:42:09.764Z,88.35
2019-05-14T03:43:09.148Z,88.40
2019-05-14T03:44:09.845Z,88.15
2019-05-14T03:45:09.023Z,87.84
2019-05-14T03:46:09.794Z,87.11
2019-05-14T03:47:10.302Z,87.21
2019-05-14T03:48:10.290Z,87.32
2019-05-14T03:49:09.457Z,86.80
2019-05-14T03:50:10.173Z,86.59
2019-05-14T03:51:09.218Z,86.49
2019-05-14T03:52:09.624Z,86.96
2019-05-14T03:53:10.175Z,87.07
2019-05-14T03:54:12.565Z,87.38
2019-05-14T03:55:09.679Z,86.76
2019-05-14T03:56:10.321Z,86.34
2019-05-14T03:57:09.447Z,85.61
2019-05-14T03:58:09.910Z,85.20
2019-05-14T03:59:09.781Z,84.27
2019-05-14T04:00:10.336Z,84.84
2019-05-14T04:01:09.636Z,84.43
2019-05-14T04:02:09.750Z,84.47
2019-05-14T04:03:09.667Z,84.41
2019-05-14T04:04:10.171Z,86.25
2019-05-14T04:05:09.694Z,87.23
2019-05-14T04:06:10.075Z,87.96
2019-05-14T04:07:09.834Z,88.62
2019-05-14T04:08:09.691Z,89.18
2019-05-14T04:09:09.642Z,89.29
2019-05-14T04:10:10.297Z,90.54
2019-05-14T04:11:09.549Z,90.47
2019-05-14T04:12:10.063Z,90.26
2019-05-14T04:13:09.138Z,90.47
2019-05-14T04:14:09.744Z,90.47
2019-05-14T04:15:09.809Z,90.89
2019-05-14T04:16:09.490Z,90.33
2019-05-14T04:17:13.894Z,90.54
2019-05-14T04:18:09.692Z,91.00
2019-05-14T04:19:09.983Z,90.44
2019-05-14T04:20:09.685Z,90.75
2019-05-14T04:21:10.103Z,90.64
2019-05-14T04:22:10.146Z,90.60
2019-05-14T04:23:09.430Z,90.50
2019-05-14T04:24:09.769Z,90.60
2019-05-14T04:25:10.978Z,90.25
2019-05-14T04:26:09.338Z,90.10
2019-05-14T04:27:12.834Z,89.31
2019-05-14T04:28:09.833Z,88.75
2019-05-14T04:29:10.166Z,88.54
2019-05-14T04:30:09.468Z,88.43
2019-05-14T04:31:09.832Z,88.60
2019-05-14T04:32:09.454Z,88.19
2019-05-14T04:33:10.618Z,88.19
2019-05-14T04:34:10.760Z,87.77
2019-05-14T04:35:09.568Z,86.90
2019-05-14T04:36:09.991Z,87.46
2019-05-14T04:37:09.689Z,87.42
2019-05-14T04:38:09.643Z,87.42
2019-05-14T04:39:09.426Z,87.48
2019-05-14T04:40:09.991Z,87.07
2019-05-14T04:41:10.355Z,87.38
2019-05-14T04:42:09.555Z,86.96
2019-05-14T04:43:10.219Z,87.17
2019-05-14T04:44:09.791Z,86.76
2019-05-14T04:45:11.030Z,87.13
2019-05-14T04:46:10.379Z,86.93
2019-05-14T04:47:22.946Z,86.72
2019-05-14T04:48:27.066Z,86.51
2019-05-14T04:49:09.890Z,86.72
2019-05-14T04:50:10.518Z,85.64
2019-05-14T04:51:09.792Z,86.36
2019-05-14T04:52:09.985Z,85.74
2019-05-14T04:53:09.027Z,86.36
2019-05-14T04:54:09.461Z,86.16
2019-05-14T04:55:09.869Z,86.47
2019-05-14T04:56:09.865Z,86.64
2019-05-14T04:57:10.306Z,86.60
2019-05-14T04:58:10.138Z,86.39
2019-05-14T04:59:10.456Z,86.80
2019-05-14T05:00:11.707Z,86.60
2019-05-14T05:01:09.814Z,86.80
2019-05-14T05:02:09.560Z,87.63
2019-05-14T05:03:12.316Z,86.97
2019-05-14T05:04:09.571Z,86.35
2019-05-14T05:05:09.080Z,85.73
2019-05-14T05:06:09.864Z,84.48
2019-05-14T05:07:09.940Z,84.03
2019-05-14T05:08:09.074Z,83.41
2019-05-14T05:09:09.377Z,83.20
2019-05-14T05:10:10.198Z,82.58
2019-05-14T05:11:09.363Z,82.86
2019-05-14T05:12:09.098Z,83.06
2019-05-14T05:13:09.223Z,83.06
2019-05-14T05:14:08.865Z,82.40
2019-05-14T05:15:09.301Z,81.68
2019-05-14T05:16:09.891Z,82.50
2019-05-14T05:17:09.253Z,81.16
2019-05-14T05:18:09.597Z,81.47
2019-05-14T05:19:10.392Z,80.85
2019-05-14T05:20:09.921Z,79.67
2019-05-14T05:21:08.777Z,79.77
2019-05-14T05:22:08.143Z,79.36
2019-05-14T05:23:08.518Z,79.36
2019-05-14T05:24:09.169Z,77.60
2019-05-14T05:25:08.423Z,77.60
2019-05-14T05:26:09.144Z,76.22
2019-05-14T05:27:09.318Z,76.53
2019-05-14T05:28:08.828Z,78.91
2019-05-14T05:29:10.364Z,79.29
2019-05-14T05:30:08.576Z,78.77
2019-05-14T05:31:09.332Z,77.91
2019-05-14T05:32:08.669Z,79.56
2019-05-14T05:33:09.077Z,78.42
2019-05-14T05:34:08.969Z,77.46
2019-05-14T05:35:09.497Z,76.43
2019-05-14T05:36:09.443Z,76.39
2019-05-14T05:37:08.616Z,75.36
2019-05-14T05:38:08.745Z,74.91
2019-05-14T05:39:08.654Z,75.63
2019-05-14T05:40:09.159Z,77.11
2019-05-14T05:41:08.849Z,75.32
2019-05-14T05:42:09.231Z,73.61
2019-05-14T05:43:08.947Z,72.30
2019-05-14T05:44:08.243Z,70.42
2019-05-14T05:45:08.188Z,69.53
2019-05-14T05:46:08.670Z,68.68
2019-05-14T05:47:09.230Z,67.76
2019-05-14T05:48:08.204Z,65.68
2019-05-14T05:49:08.132Z,64.32
2019-05-14T05:50:08.749Z,62.85
2019-05-14T05:51:09.111Z,61.88
2019-05-14T05:52:08.499Z,61.21
2019-05-14T05:53:09.027Z,60.26
2019-05-14T05:54:09.210Z,59.85
2019-05-14T05:55:08.906Z,59.00
2019-05-14T05:56:08.934Z,57.83
2019-05-14T05:57:09.334Z,57.93
2019-05-14T05:58:08.681Z,56.91
2019-05-14T05:59:09.571Z,56.81
2019-05-14T06:00:09.403Z,56.40
2019-05-14T06:01:09.602Z,57.14
2019-05-14T06:02:09.398Z,57.01
2019-05-14T06:03:10.945Z,55.69
2019-05-14T06:04:08.705Z,55.69
2019-05-14T06:05:08.114Z,55.53
2019-05-14T06:06:13.270Z,55.63
2019-05-14T06:07:08.964Z,54.79
2019-05-14T06:08:08.651Z,54.18
2019-05-14T06:09:08.959Z,55.28
2019-05-14T06:10:08.029Z,54.33
2019-05-14T06:11:08.399Z,54.33
2019-05-14T06:12:08.669Z,54.61
2019-05-14T06:13:08.892Z,54.61
2019-05-14T06:14:08.353Z,54.31
2019-05-14T06:15:08.727Z,53.27
2019-05-14T06:16:09.497Z,52.58
2019-05-14T06:17:08.570Z,53.90
2019-05-14T06:18:15.099Z,52.89
2019-05-14T06:19:08.450Z,52.10
2019-05-14T06:20:08.601Z,53.34
2019-05-14T06:21:09.144Z,52.91
2019-05-14T06:22:09.564Z,53.24
2019-05-14T06:23:08.458Z,52.81
2019-05-14T06:24:09.057Z,52.73
2019-05-14T06:25:10.999Z,52.61
2019-05-14T06:26:11.550Z,52.91
2019-05-14T06:27:09.287Z,52.56
2019-05-14T06:28:08.632Z,51.64
2019-05-14T06:29:08.377Z,51.84
2019-05-14T06:30:09.124Z,52.20
2019-05-14T06:31:09.904Z,52.83
2019-05-14T06:32:09.279Z,53.39
2019-05-14T06:33:09.262Z,52.86
2019-05-14T06:34:09.536Z,52.43
2019-05-14T06:35:08.792Z,51.21
2019-05-14T06:36:08.711Z,51.54
2019-05-14T06:37:08.358Z,51.54
2019-05-14T06:38:08.932Z,51.46
2019-05-14T06:39:09.129Z,52.17
2019-05-14T06:40:08.862Z,51.69
2019-05-14T06:41:08.472Z,52.71
2019-05-14T06:42:08.808Z,51.97
2019-05-14T06:43:09.114Z,51.77
2019-05-14T06:44:09.047Z,51.21
2019-05-14T06:45:09.032Z,50.60
2019-05-14T06:46:09.019Z,50.27
2019-05-14T06:47:09.195Z,51.42
2019-05-14T06:48:08.735Z,51.21
2019-05-14T06:49:09.117Z,50.29
2019-05-14T06:50:08.593Z,50.62
2019-05-14T06:51:08.787Z,50.70
2019-05-14T06:52:08.768Z,51.34
2019-05-14T06:53:08.503Z,51.03
2019-05-14T06:54:09.061Z,50.32
2019-05-14T06:55:08.973Z,50.73
2019-05-14T06:56:08.136Z,50.34
2019-05-14T06:57:08.828Z,51.01
2019-05-14T06:58:08.998Z,50.93
2019-05-14T06:59:08.998Z,49.36
2019-05-14T07:00:08.339Z,48.95
2019-05-14T07:01:09.256Z,47.71
2019-05-14T07:02:08.759Z,48.75
2019-05-14T07:03:08.927Z,48.32
2019-05-14T07:04:08.825Z,49.51
2019-05-14T07:05:08.412Z,50.26
2019-05-14T07:06:08.910Z,50.75
2019-05-14T07:07:08.456Z,50.34
2019-05-14T07:08:08.916Z,49.84
2019-05-14T07:09:08.203Z,50.62
2019-05-14T07:10:08.888Z,48.67
2019-05-14T07:11:08.507Z,50.29
2019-05-14T07:12:08.984Z,50.14
2019-05-14T07:13:08.634Z,49.08
2019-05-14T07:14:10.935Z,48.11
2019-05-14T07:15:09.036Z,48.04
2019-05-14T07:16:08.722Z,47.63
2019-05-14T07:17:08.876Z,46.27
2019-05-14T07:18:08.643Z,45.94
2019-05-14T07:19:06.564Z,45.92
2019-05-14T07:20:08.684Z,45.07
2019-05-14T07:21:08.242Z,46.59
2019-05-14T07:22:08.707Z,46.06
2019-05-14T07:23:08.160Z,45.54
2019-05-14T07:24:08.783Z,46.90
2019-05-14T07:25:09.525Z,46.06
2019-05-14T07:26:08.403Z,46.06
2019-05-14T07:27:09.224Z,44.27
2019-05-14T07:28:08.714Z,44.27
2019-05-14T07:29:11.214Z,44.15
2019-05-14T07:30:08.962Z,43.99
2019-05-14T07:31:06.419Z,42.96
2019-05-14T07:32:08.762Z,41.38
2019-05-14T07:33:06.391Z,44.13
2019-05-14T07:34:08.713Z,45.48
2019-05-14T07:35:08.935Z,46.41
2019-05-14T07:36:08.611Z,47.19
2019-05-14T07:37:09.033Z,46.29
2019-05-14T07:38:08.774Z,44.60
2019-05-14T07:39:09.082Z,44.40
2019-05-14T07:40:08.467Z,45.40
2019-05-14T07:41:08.948Z,48.23
2019-05-14T07:42:06.363Z,48.33
2019-05-14T07:43:08.843Z,48.94
2019-05-14T07:44:06.277Z,48.54
2019-05-14T07:45:06.255Z,50.26
2019-05-14T07:46:08.294Z,48.49
2019-05-14T07:47:08.159Z,46.44
2019-05-14T07:48:08.732Z,43.89
2019-05-14T07:49:09.320Z,44.74
2019-05-14T07:50:08.608Z,46.21
2019-05-14T07:51:08.785Z,46.62
2019-05-14T07:52:06.179Z,46.78
2019-05-14T07:53:08.548Z,47.72
2019-05-14T07:54:08.159Z,48.25
2019-05-14T07:55:06.139Z,49.27
2019-05-14T07:56:06.129Z,47.41
2019-05-14T07:57:08.459Z,46.59
2019-05-14T07:58:08.196Z,46.19
2019-05-14T07:59:06.102Z,47.28
2019-05-14T08:00:08.065Z,45.84
2019-05-14T08:01:06.070Z,46.23
2019-05-14T08:02:06.061Z,47.70
2019-05-14T08:03:08.110Z,48.31
2019-05-14T08:04:10.135Z,48.51
2019-05-14T08:05:06.031Z,48.84
2019-05-14T08:06:08.191Z,47.85
2019-05-14T08:07:08.711Z,49.68
2019-05-14T08:08:07.943Z,50.31
2019-05-14T08:09:08.446Z,50.06
2019-05-14T08:10:05.968Z,46.17
2019-05-14T08:11:08.428Z,46.44
2019-05-14T08:12:06.011Z,46.33
2019-05-14T08:13:08.324Z,44.42
2019-05-14T08:14:05.926Z,41.72
2019-05-14T08:15:15.408Z,40.39
2019-05-14T08:16:08.919Z,40.94
2019-05-14T08:17:08.463Z,40.05
2019-05-14T08:18:08.132Z,41.99
2019-05-14T08:19:20.950Z,43.65
2019-05-14T08:20:08.875Z,42.05
2019-05-14T08:21:08.282Z,39.22
2019-05-14T08:22:05.826Z,39.24
2019-05-14T08:23:05.825Z,41.09
2019-05-14T08:24:08.688Z,41.86
2019-05-14T08:25:05.794Z,42.84
2019-05-14T08:26:07.795Z,44.12
2019-05-14T08:27:05.771Z,42.60
2019-05-14T08:28:07.972Z,41.40
2019-05-14T08:29:05.754Z,41.52
2019-05-14T08:30:08.092Z,43.30
2019-05-14T08:31:05.726Z,44.46
2019-05-14T08:32:05.732Z,45.12
2019-05-14T08:33:05.700Z,44.59
2019-05-14T08:34:06.680Z,43.44
2019-05-14T08:35:05.697Z,43.53
2019-05-14T08:36:05.740Z,40.59
2019-05-14T08:37:05.654Z,41.99
2019-05-14T08:38:11.359Z,43.26
2019-05-14T08:39:08.638Z,43.37
2019-05-14T08:40:05.641Z,44.71
2019-05-14T08:41:08.198Z,44.81
2019-05-14T08:42:08.299Z,45.61
2019-05-14T08:43:05.587Z,46.17
2019-05-14T08:44:05.575Z,44.34
2019-05-14T08:45:10.558Z,44.75
2019-05-14T08:46:08.176Z,44.34
2019-05-14T08:47:05.544Z,41.58
2019-05-14T08:48:05.614Z,41.21
2019-05-14T08:49:05.516Z,42.07
2019-05-14T08:50:05.506Z,41.52
2019-05-14T08:51:05.494Z,43.47
2019-05-14T08:52:05.480Z,44.20
2019-05-14T08:53:05.485Z,45.32
2019-05-14T08:54:05.534Z,43.90
2019-05-14T08:55:10.083Z,41.16
2019-05-14T08:56:08.374Z,40.65
2019-05-14T08:57:05.490Z,39.90
2019-05-14T08:58:10.381Z,40.47
2019-05-14T08:59:08.650Z,41.46
2019-05-14T09:00:05.406Z,42.17
2019-05-14T09:01:05.377Z,39.22
2019-05-14T09:02:06.481Z,37.77
2019-05-14T09:03:05.361Z,38.63
2019-05-14T09:04:05.343Z,39.17
2019-05-14T09:05:07.075Z,38.24
2019-05-14T09:06:05.335Z,40.36
2019-05-14T09:07:05.312Z,41.99
2019-05-14T09:08:05.297Z,40.39
2019-05-14T09:09:05.286Z,38.37
2019-05-14T09:10:05.280Z,36.81
2019-05-14T09:11:05.344Z,38.02
2019-05-14T09:12:05.262Z,40.14
2019-05-14T09:13:05.243Z,42.31
2019-05-14T09:14:05.252Z,40.63
2019-05-14T09:15:05.219Z,40.67
2019-05-14T09:16:05.206Z,42.31
2019-05-14T09:17:05.280Z,43.16
2019-05-14T09:18:05.200Z,42.19
2019-05-14T09:19:05.175Z,41.99
2019-05-14T09:20:07.164Z,41.52
2019-05-14T09:21:05.153Z,41.50
2019-05-14T09:22:05.144Z,42.43
2019-05-14T09:23:05.203Z,43.06
2019-05-14T09:24:05.119Z,42.41
2019-05-14T09:25:05.108Z,40.06
2019-05-14T09:26:05.100Z,37.59
2019-05-14T09:27:05.553Z,37.29
2019-05-14T09:28:05.075Z,37.07
2019-05-14T09:29:18.419Z,35.55
2019-05-14T09:30:06.049Z,35.13
2019-05-14T09:31:05.046Z,35.23
2019-05-14T09:32:05.030Z,35.75
2019-05-14T09:33:05.029Z,36.62
2019-05-14T09:34:05.004Z,38.06
2019-05-14T09:35:05.066Z,38.48
2019-05-14T09:36:14.861Z,38.07
2019-05-14T09:37:08.405Z,39.48
2019-05-14T09:38:04.963Z,40.75
2019-05-14T09:39:04.945Z,42.11
2019-05-14T09:40:04.935Z,42.39
2019-05-14T09:41:11.167Z,40.03
2019-05-14T09:42:07.961Z,40.53
2019-05-14T09:43:04.902Z,38.31
2019-05-14T09:44:04.889Z,40.89
2019-05-14T09:45:04.889Z,42.01
2019-05-14T09:46:04.866Z,41.71
2019-05-14T09:47:04.942Z,41.69
2019-05-14T09:48:04.846Z,41.00
2019-05-14T09:49:04.840Z,41.69
2019-05-14T09:50:16.406Z,40.81
2019-05-14T09:51:05.815Z,41.09
2019-05-14T09:52:04.797Z,40.63
2019-05-14T09:53:04.864Z,42.09
2019-05-14T09:54:04.778Z,42.19
2019-05-14T09:55:04.776Z,41.97
2019-05-14T09:56:04.754Z,41.85
2019-05-14T09:57:04.748Z,42.25
2019-05-14T09:58:04.731Z,42.57
2019-05-14T09:59:04.801Z,43.30
2019-05-14T10:00:04.707Z,42.76
2019-05-14T10:01:04.697Z,42.66
2019-05-14T10:02:04.688Z,43.69
2019-05-14T10:03:04.685Z,43.49
2019-05-14T10:04:04.673Z,44.53
2019-05-14T10:05:04.725Z,45.24
2019-05-14T10:06:04.638Z,45.44
2019-05-14T10:07:04.629Z,45.32
2019-05-14T10:08:04.621Z,44.91
2019-05-14T10:09:04.610Z,44.59
2019-05-14T10:10:04.601Z,43.12
2019-05-14T10:11:04.662Z,43.41
2019-05-14T10:12:04.568Z,43.71
2019-05-14T10:13:04.558Z,42.09
2019-05-14T10:14:04.550Z,40.86
2019-05-14T10:15:04.537Z,41.12
2019-05-14T10:16:04.525Z,42.19
2019-05-14T10:17:04.586Z,42.51
2019-05-14T10:18:04.501Z,42.35
2019-05-14T10:19:04.489Z,44.63
2019-05-14T10:20:04.490Z,44.63
2019-05-14T10:21:04.474Z,44.65
2019-05-14T10:22:04.458Z,45.40
2019-05-14T10:23:04.516Z,45.61
2019-05-14T10:24:04.446Z,45.91
2019-05-14T10:25:04.430Z,45.99
2019-05-14T10:26:04.408Z,46.09
2019-05-14T10:27:04.398Z,46.01
2019-05-14T10:28:04.391Z,46.30
2019-05-14T10:29:04.438Z,46.60
2019-05-14T10:30:04.381Z,45.79
2019-05-14T10:31:04.364Z,45.99
2019-05-14T10:32:04.345Z,46.20
2019-05-14T10:33:09.542Z,46.28
2019-05-14T10:34:05.401Z,46.68
2019-05-14T10:35:04.310Z,45.95
2019-05-14T10:36:04.294Z,45.09
2019-05-14T10:37:04.297Z,44.26
2019-05-14T10:38:04.272Z,44.46
2019-05-14T10:39:04.261Z,42.66
2019-05-14T10:40:04.323Z,41.72
2019-05-14T10:41:04.237Z,41.44
2019-05-14T10:42:04.227Z,41.97
2019-05-14T10:43:04.223Z,42.07
2019-05-14T10:44:04.209Z,41.66
2019-05-14T10:45:04.202Z,41.48
2019-05-14T10:46:04.246Z,42.39
2019-05-14T10:47:04.175Z,41.30
2019-05-14T10:48:04.168Z,42.02
2019-05-14T10:49:16.319Z,43.65
2019-05-14T10:50:05.132Z,43.98
2019-05-14T10:51:04.130Z,43.96
2019-05-14T10:52:04.172Z,43.85
2019-05-14T10:53:04.097Z,43.93
2019-05-14T10:54:18.878Z,44.56
2019-05-14T10:55:05.080Z,44.56
2019-05-14T10:56:04.063Z,44.46
2019-05-14T10:57:04.051Z,44.46
2019-05-14T10:58:04.101Z,44.77
2019-05-14T10:59:04.034Z,45.09
2019-05-14T11:00:04.031Z,45.28
2019-05-14T11:01:04.062Z,44.56
2019-05-14T11:02:03.998Z,44.67
2019-05-14T11:03:03.982Z,44.24
2019-05-14T11:04:04.030Z,44.22
2019-05-14T11:05:03.958Z,43.47
2019-05-14T11:06:03.956Z,41.87
2019-05-14T11:07:03.936Z,41.14
2019-05-14T11:08:03.922Z,41.89
2019-05-14T11:09:03.915Z,41.35
2019-05-14T11:10:04.084Z,41.44
2019-05-14T11:11:04.438Z,41.16
2019-05-14T11:12:03.894Z,41.97
2019-05-14T11:13:03.866Z,41.99
2019-05-14T11:14:03.859Z,41.49
2019-05-14T11:15:03.845Z,41.18
2019-05-14T11:16:03.902Z,41.66
2019-05-14T11:17:03.826Z,40.05
2019-05-14T11:18:03.818Z,41.56
2019-05-14T11:19:03.814Z,40.47
2019-05-14T11:20:03.787Z,40.64
2019-05-14T11:21:18.834Z,40.55
2019-05-14T11:22:04.839Z,41.20
2019-05-14T11:23:03.761Z,41.71
2019-05-14T11:24:03.749Z,42.31
2019-05-14T11:25:03.738Z,41.44
2019-05-14T11:26:03.732Z,43.16
2019-05-14T11:27:03.715Z,43.79
2019-05-14T11:28:03.764Z,42.27
2019-05-14T11:29:03.694Z,42.19
2019-05-14T11:30:03.681Z,42.19
2019-05-14T11:31:03.666Z,40.53
2019-05-14T11:32:03.668Z,39.30
2019-05-14T11:33:03.646Z,37.09
2019-05-14T11:34:03.703Z,35.50
2019-05-14T11:35:03.622Z,35.35
2019-05-14T11:36:03.610Z,33.92
2019-05-14T11:37:03.595Z,32.85
2019-05-14T11:38:03.613Z,33.57
2019-05-14T11:39:04.193Z,33.45
2019-05-14T11:40:03.645Z,34.16
2019-05-14T11:41:03.556Z,37.88
2019-05-14T11:42:03.538Z,38.28
2019-05-14T11:43:03.531Z,40.49
2019-05-14T11:44:03.531Z,42.07
2019-05-14T11:45:03.526Z,43.38
2019-05-14T11:46:03.553Z,43.29
2019-05-14T11:47:03.485Z,41.30
2019-05-14T11:48:03.475Z,37.74
2019-05-14T11:49:03.461Z,36.55
2019-05-14T11:50:03.467Z,34.21
2019-05-14T11:51:03.482Z,33.69
2019-05-14T11:52:07.897Z,33.06
2019-05-14T11:53:04.415Z,33.54
2019-05-14T11:54:03.409Z,32.64
2019-05-14T11:55:03.455Z,33.28
2019-05-14T11:56:03.384Z,35.55
2019-05-14T11:57:03.390Z,35.16
2019-05-14T11:58:03.419Z,36.36
2019-05-14T11:59:03.348Z,35.68
2019-05-14T12:00:03.342Z,35.30
2019-05-14T12:01:03.323Z,36.95
2019-05-14T12:02:03.314Z,35.35
2019-05-14T12:03:03.312Z,34.96
2019-05-14T12:04:03.356Z,34.92
2019-05-14T12:05:03.280Z,34.94
2019-05-14T12:06:03.268Z,34.53
2019-05-14T12:07:03.268Z,32.53
2019-05-14T12:08:03.248Z,31.99
2019-05-14T12:09:03.251Z,34.21
2019-05-14T12:10:03.307Z,35.73
2019-05-14T12:11:03.218Z,37.93
2019-05-14T12:12:03.221Z,41.14
2019-05-14T12:13:03.191Z,38.93
2019-05-14T12:14:03.180Z,36.90
2019-05-14T12:15:03.177Z,36.32
2019-05-14T12:16:03.232Z,36.87
2019-05-14T12:17:03.146Z,34.29
2019-05-14T12:18:03.138Z,34.24
2019-05-14T12:19:03.141Z,33.79
2019-05-14T12:20:03.122Z,32.92
2019-05-14T12:21:03.126Z,34.79
2019-05-14T12:22:07.415Z,33.87
2019-05-14T12:23:04.078Z,33.77
2019-05-14T12:24:05.611Z,34.04
2019-05-14T12:25:03.063Z,32.75
2019-05-14T12:26:03.051Z,32.70
2019-05-14T12:27:03.046Z,32.24
2019-05-14T12:28:03.126Z,32.24
2019-05-14T12:29:03.021Z,32.15
2019-05-14T12:30:03.035Z,35.36
2019-05-14T12:31:02.992Z,37.02
2019-05-14T12:32:03.123Z,36.86
2019-05-14T12:33:03.017Z,37.65
2019-05-14T12:34:03.030Z,37.09
2019-05-14T12:35:02.973Z,36.87
2019-05-14T12:36:02.956Z,35.31
2019-05-14T12:37:02.926Z,34.52
2019-05-14T12:38:02.916Z,35.28
2019-05-14T12:39:02.907Z,34.71
2019-05-14T12:40:02.953Z,33.65
2019-05-14T12:41:02.897Z,33.61
2019-05-14T12:42:02.877Z,31.35
2019-05-14T12:43:02.862Z,32.32
2019-05-14T12:44:02.844Z,31.11
2019-05-14T12:45:02.834Z,30.87
2019-05-14T12:46:02.886Z,30.69
2019-05-14T12:47:02.839Z,31.00
2019-05-14T12:48:02.813Z,30.80
2019-05-14T12:49:02.789Z,32.00
2019-05-14T12:50:02.779Z,32.24
2019-05-14T12:51:02.771Z,34.45
2019-05-14T12:52:17.845Z,35.23